Abilene, Kansas
Current Conditions -  °F | °C
As of 3:53 AM on Monday 26 Jan 2015 (Local Time) from KSLN Reporting Station
Clear Clear  
Wind Chill: -6°   Ceiling: Unl
Heat Index: -3°   Visibility: 10mi
Dew Point: -4°   Wind: 6mph
Humidity: 92%   Direction: 190°S
Pressure: 30.07"   Gusts: NA
Location:  38.92°N, 97.21°W
Report Text: KSLN 260953Z AUTO 19005KT 10SM CLR M03/M04 A3007 RMK AO2 SLP191 T10281039
Loading
Personal Weather Stations






























Interactive Weather Map New forecast layout! Learn more

10-Day Weather Forecast

Advertisements
Track Severe Weather on mobile